Ancramdale, New York
Current Conditions -  °F | °C
As of 9:02 PM on Saturday 20 Dec 2014 (Local Time) from KPOU Reporting Station
Overcast Overcast  
Wind Chill: 24°   Ceiling: 3400
Heat Index: 30°   Visibility: 10mi
Dew Point: 20°   Wind: 6mph
Humidity: 66%   Direction: 20°NNE
Pressure: 30.3"   Gusts: NA
Location:  42.02°N, 73.59°W
Report Text: KPOU 210202Z AUTO 02005KT 10SM SCT027 OVC034 M01/M07 A3030 RMK AO2 T10111067 TSNO
Loading
Personal Weather Stations






























Interactive Weather Map New forecast layout! Learn more

10-Day Weather Forecast

Advertisements
Track Severe Weather on mobile